createdAt,value
2022-12-18T00:04:34.773Z,30.70
2022-12-18T00:14:39.535Z,34.77
2022-12-18T00:24:46.029Z,23.97
2022-12-18T00:34:52.837Z,34.93
2022-12-18T00:44:56.475Z,40.00
2022-12-18T00:55:06.029Z,38.83
2022-12-18T01:05:12.270Z,22.20
2022-12-18T01:15:20.067Z,37.20
2022-12-18T01:25:26.929Z,28.77
2022-12-18T01:35:32.849Z,17.83
2022-12-18T01:45:35.230Z,20.40
2022-12-18T01:55:57.889Z,27.77
2022-12-18T02:06:22.458Z,31.33
2022-12-18T02:16:34.362Z,25.27
2022-12-18T02:26:47.081Z,29.27
2022-12-18T02:36:52.165Z,31.70
2022-12-18T02:46:57.238Z,30.10
2022-12-18T02:57:15.600Z,15.90
2022-12-18T03:07:22.143Z,27.67
2022-12-18T03:17:28.388Z,25.23
2022-12-18T03:27:35.184Z,28.33
2022-12-18T03:37:44.293Z,25.27
2022-12-18T03:48:09.515Z,21.83
2022-12-18T03:58:22.330Z,27.97
2022-12-18T04:08:33.381Z,17.53
2022-12-18T04:18:40.094Z,20.23
2022-12-18T04:28:42.228Z,23.13
2022-12-18T04:38:47.786Z,28.07
2022-12-18T04:48:53.317Z,25.77
2022-12-18T04:58:55.964Z,22.20
2022-12-18T05:09:04.068Z,23.40
2022-12-18T05:19:06.266Z,28.33
2022-12-18T05:29:13.331Z,26.27
2022-12-18T05:39:20.684Z,19.90
2022-12-18T05:49:24.989Z,32.53
2022-12-18T05:59:29.482Z,26.17
2022-12-18T06:09:35.004Z,28.93
2022-12-18T06:19:37.164Z,22.70
2022-12-18T06:29:44.007Z,34.43
2022-12-18T06:39:50.748Z,38.90
2022-12-18T06:49:54.109Z,41.07
2022-12-18T06:59:59.234Z,37.33
2022-12-18T07:10:05.801Z,41.93
2022-12-18T07:20:13.340Z,40.37
2022-12-18T07:30:21.211Z,37.53
2022-12-18T07:40:33.316Z,41.80
2022-12-18T07:50:40.907Z,44.03
2022-12-18T08:00:46.067Z,39.37
2022-12-18T08:10:48.479Z,37.47
2022-12-18T08:20:57.638Z,46.63
2022-12-18T08:31:02.313Z,38.97
2022-12-18T08:41:07.072Z,25.30
2022-12-18T08:51:11.437Z,30.27
2022-12-18T09:01:14.832Z,35.37
2022-12-18T09:11:22.765Z,36.47
2022-12-18T09:21:30.789Z,31.80
2022-12-18T09:31:33.340Z,36.57
2022-12-18T09:42:00.106Z,30.03
2022-12-18T09:52:11.001Z,27.13
2022-12-18T10:02:20.074Z,43.60
2022-12-18T10:12:39.976Z,40.97
2022-12-18T10:23:28.952Z,47.20
2022-12-18T10:33:34.824Z,45.73
2022-12-18T10:43:39.183Z,43.77
2022-12-18T10:53:43.883Z,42.30
2022-12-18T11:03:49.696Z,47.83
2022-12-18T11:14:06.206Z,43.77
2022-12-18T11:24:20.288Z,35.70
2022-12-18T11:34:29.423Z,45.50
2022-12-18T11:44:52.198Z,54.63
2022-12-18T11:54:56.631Z,45.47
2022-12-18T12:05:13.012Z,40.37
2022-12-18T12:15:24.128Z,46.10
2022-12-18T12:25:32.403Z,44.43
2022-12-18T12:35:59.270Z,54.07
2022-12-18T12:46:13.158Z,38.00
2022-12-18T12:56:21.468Z,53.57
2022-12-18T13:06:44.670Z,47.27
2022-12-18T13:16:47.036Z,55.63
2022-12-18T13:26:49.702Z,48.77
2022-12-18T13:36:56.090Z,50.37
2022-12-18T13:46:58.973Z,54.00
2022-12-18T13:57:05.150Z,49.60
2022-12-18T14:07:09.706Z,48.40
2022-12-18T14:17:12.900Z,47.13
2022-12-18T14:27:27.185Z,46.63
2022-12-18T14:37:32.329Z,51.67
2022-12-18T14:47:35.864Z,47.63
2022-12-18T14:57:39.070Z,68.27
2022-12-18T15:07:44.308Z,52.37
2022-12-18T15:17:48.870Z,52.97
2022-12-18T15:27:53.164Z,50.10
2022-12-18T15:37:57.949Z,48.37
2022-12-18T15:48:00.755Z,50.27
2022-12-18T15:58:07.450Z,45.13
2022-12-18T16:08:16.669Z,53.83
2022-12-18T16:18:18.840Z,41.77
2022-12-18T16:28:23.222Z,43.67
2022-12-18T16:38:27.494Z,45.27
2022-12-18T16:48:29.682Z,38.87
2022-12-18T16:58:34.895Z,40.50
2022-12-18T17:08:39.376Z,36.17
2022-12-18T17:18:47.112Z,39.27
2022-12-18T17:28:50.065Z,42.53
2022-12-18T17:38:58.133Z,43.27
2022-12-18T17:49:04.415Z,43.00
2022-12-18T17:59:09.918Z,35.73
2022-12-18T18:09:16.991Z,39.07
2022-12-18T18:19:26.515Z,42.90
2022-12-18T18:29:36.813Z,35.30
2022-12-18T18:39:40.233Z,37.23
2022-12-18T18:49:42.410Z,21.57
2022-12-18T18:59:44.738Z,22.33
2022-12-18T19:09:52.047Z,44.07
2022-12-18T19:19:59.176Z,30.57
2022-12-18T19:30:03.812Z,46.70
2022-12-18T19:40:12.663Z,35.33
2022-12-18T19:50:17.574Z,39.43
2022-12-18T20:00:22.027Z,36.40
2022-12-18T20:10:24.784Z,45.40
2022-12-18T20:20:31.984Z,41.50
2022-12-18T20:30:36.904Z,35.03
2022-12-18T20:40:41.676Z,29.83
2022-12-18T20:50:44.281Z,27.33
2022-12-18T21:00:47.730Z,26.93
2022-12-18T21:10:56.796Z,20.60
2022-12-18T21:21:07.161Z,28.50
2022-12-18T21:31:14.415Z,24.83
2022-12-18T21:41:41.875Z,36.73
2022-12-18T21:51:45.409Z,33.30
2022-12-18T22:01:55.557Z,14.07
2022-12-18T22:12:00.960Z,30.40
2022-12-18T22:22:03.202Z,34.60
2022-12-18T22:32:08.605Z,37.80
2022-12-18T22:42:12.851Z,34.90
2022-12-18T22:52:17.049Z,33.50
2022-12-18T23:02:23.296Z,27.13
2022-12-18T23:12:31.950Z,29.77
2022-12-18T23:22:41.046Z,29.30
2022-12-18T23:32:47.354Z,28.23
2022-12-18T23:42:49.471Z,27.90
2022-12-18T23:52:53.794Z,22.27
